sensor_id;sensor_type;location;lat;lon;timestamp;temperature;humidity
32698;DHT22;19087;51.062;3.754;2022-09-23T00:00:41;12.30;99.90
32698;DHT22;19087;51.062;3.754;2022-09-23T00:03:07;12.30;99.90
32698;DHT22;19087;51.062;3.754;2022-09-23T00:05:33;12.40;99.90
32698;DHT22;19087;51.062;3.754;2022-09-23T00:07:59;12.30;99.90
32698;DHT22;19087;51.062;3.754;2022-09-23T00:10:26;12.30;99.90
32698;DHT22;19087;51.062;3.754;2022-09-23T00:12:53;12.40;99.90
32698;DHT22;19087;51.062;3.754;2022-09-23T00:15:20;12.50;99.90
32698;DHT22;19087;51.062;3.754;2022-09-23T00:17:46;12.50;99.90
32698;DHT22;19087;51.062;3.754;2022-09-23T00:20:13;12.50;99.90
32698;DHT22;19087;51.062;3.754;2022-09-23T00:22:40;12.50;99.90
32698;DHT22;19087;51.062;3.754;2022-09-23T00:25:09;12.50;99.90
32698;DHT22;19087;51.062;3.754;2022-09-23T00:27:35;12.40;99.90
32698;DHT22;19087;51.062;3.754;2022-09-23T00:30:03;12.20;99.90
32698;DHT22;19087;51.062;3.754;2022-09-23T00:32:29;12.00;99.90
32698;DHT22;19087;51.062;3.754;2022-09-23T00:34:55;11.90;99.90
32698;DHT22;19087;51.062;3.754;2022-09-23T00:37:21;11.90;99.90
32698;DHT22;19087;51.062;3.754;2022-09-23T00:39:47;11.90;99.90
32698;DHT22;19087;51.062;3.754;2022-09-23T00:42:19;11.90;99.90
32698;DHT22;19087;51.062;3.754;2022-09-23T00:44:51;11.90;99.90
32698;DHT22;19087;51.062;3.754;2022-09-23T00:47:23;11.80;99.90
32698;DHT22;19087;51.062;3.754;2022-09-23T00:50:40;11.80;99.90
32698;DHT22;19087;51.062;3.754;2022-09-23T00:52:47;11.70;99.90
32698;DHT22;19087;51.062;3.754;2022-09-23T00:55:19;11.70;99.90
32698;DHT22;19087;51.062;3.754;2022-09-23T00:57:46;11.60;99.90
32698;DHT22;19087;51.062;3.754;2022-09-23T01:00:12;11.50;99.90
32698;DHT22;19087;51.062;3.754;2022-09-23T01:02:38;11.60;99.90
32698;DHT22;19087;51.062;3.754;2022-09-23T01:05:05;11.60;99.90
32698;DHT22;19087;51.062;3.754;2022-09-23T01:07:31;11.60;99.90
32698;DHT22;19087;51.062;3.754;2022-09-23T01:09:58;11.60;99.90
32698;DHT22;19087;51.062;3.754;2022-09-23T01:15:17;11.60;99.90
32698;DHT22;19087;51.062;3.754;2022-09-23T01:37:48;11.30;99.90
32698;DHT22;19087;51.062;3.754;2022-09-23T01:40:19;11.30;99.90
32698;DHT22;19087;51.062;3.754;2022-09-23T01:43:24;11.30;99.90
32698;DHT22;19087;51.062;3.754;2022-09-23T01:45:54;11.50;99.90
32698;DHT22;19087;51.062;3.754;2022-09-23T01:48:45;11.60;99.90
32698;DHT22;19087;51.062;3.754;2022-09-23T01:51:22;11.70;99.90
32698;DHT22;19087;51.062;3.754;2022-09-23T01:54:07;11.80;99.90
32698;DHT22;19087;51.062;3.754;2022-09-23T01:56:47;11.70;99.90
32698;DHT22;19087;51.062;3.754;2022-09-23T01:59:33;11.70;99.90
32698;DHT22;19087;51.062;3.754;2022-09-23T02:02:13;11.70;99.90
32698;DHT22;19087;51.062;3.754;2022-09-23T02:04:47;11.60;99.90
32698;DHT22;19087;51.062;3.754;2022-09-23T02:07:30;11.40;99.90
32698;DHT22;19087;51.062;3.754;2022-09-23T02:12:34;11.70;99.90
32698;DHT22;19087;51.062;3.754;2022-09-23T02:15:07;11.60;99.90
32698;DHT22;19087;51.062;3.754;2022-09-23T02:20:31;11.40;99.90
32698;DHT22;19087;51.062;3.754;2022-09-23T02:23:03;11.40;99.90
32698;DHT22;19087;51.062;3.754;2022-09-23T02:31:24;11.40;99.90
32698;DHT22;19087;51.062;3.754;2022-09-23T02:40:02;11.60;99.90
32698;DHT22;19087;51.062;3.754;2022-09-23T02:45:28;11.50;99.90
32698;DHT22;19087;51.062;3.754;2022-09-23T02:48:05;11.70;99.90
32698;DHT22;19087;51.062;3.754;2022-09-23T02:50:33;11.80;99.90
32698;DHT22;19087;51.062;3.754;2022-09-23T02:52:59;11.70;99.90
32698;DHT22;19087;51.062;3.754;2022-09-23T02:55:28;11.70;99.90
32698;DHT22;19087;51.062;3.754;2022-09-23T02:57:59;11.70;99.90
32698;DHT22;19087;51.062;3.754;2022-09-23T03:00:32;11.60;99.90
32698;DHT22;19087;51.062;3.754;2022-09-23T03:03:32;11.60;99.90
32698;DHT22;19087;51.062;3.754;2022-09-23T03:06:09;11.50;99.90
32698;DHT22;19087;51.062;3.754;2022-09-23T03:08:57;11.60;99.90
32698;DHT22;19087;51.062;3.754;2022-09-23T03:11:24;11.70;99.90
32698;DHT22;19087;51.062;3.754;2022-09-23T03:16:53;11.70;99.90
32698;DHT22;19087;51.062;3.754;2022-09-23T03:20:01;11.70;99.90
32698;DHT22;19087;51.062;3.754;2022-09-23T03:22:31;11.60;99.90
32698;DHT22;19087;51.062;3.754;2022-09-23T03:25:02;11.90;99.90
32698;DHT22;19087;51.062;3.754;2022-09-23T03:27:34;12.00;99.90
32698;DHT22;19087;51.062;3.754;2022-09-23T03:30:02;11.80;99.90
32698;DHT22;19087;51.062;3.754;2022-09-23T03:32:29;11.70;99.90
32698;DHT22;19087;51.062;3.754;2022-09-23T03:34:59;11.70;99.90
32698;DHT22;19087;51.062;3.754;2022-09-23T03:37:38;11.70;99.90
32698;DHT22;19087;51.062;3.754;2022-09-23T03:40:25;11.70;99.90
32698;DHT22;19087;51.062;3.754;2022-09-23T03:42:54;11.70;99.90
32698;DHT22;19087;51.062;3.754;2022-09-23T03:45:29;11.70;99.90
32698;DHT22;19087;51.062;3.754;2022-09-23T03:47:56;11.70;99.90
32698;DHT22;19087;51.062;3.754;2022-09-23T03:50:21;11.60;99.90
32698;DHT22;19087;51.062;3.754;2022-09-23T03:52:47;11.60;99.90
32698;DHT22;19087;51.062;3.754;2022-09-23T03:55:15;11.60;99.90
32698;DHT22;19087;51.062;3.754;2022-09-23T03:57:42;11.80;99.90
32698;DHT22;19087;51.062;3.754;2022-09-23T04:00:08;11.80;99.90
32698;DHT22;19087;51.062;3.754;2022-09-23T04:02:34;11.80;99.90
32698;DHT22;19087;51.062;3.754;2022-09-23T04:05:00;11.80;99.90
32698;DHT22;19087;51.062;3.754;2022-09-23T04:07:26;11.80;99.90
32698;DHT22;19087;51.062;3.754;2022-09-23T04:09:52;12.00;99.90
32698;DHT22;19087;51.062;3.754;2022-09-23T04:12:18;12.20;99.90
32698;DHT22;19087;51.062;3.754;2022-09-23T04:14:44;12.30;99.90
32698;DHT22;19087;51.062;3.754;2022-09-23T04:17:12;12.30;99.90
32698;DHT22;19087;51.062;3.754;2022-09-23T04:19:39;12.30;99.90
32698;DHT22;19087;51.062;3.754;2022-09-23T04:22:05;12.30;99.90
32698;DHT22;19087;51.062;3.754;2022-09-23T04:24:31;12.30;99.90
32698;DHT22;19087;51.062;3.754;2022-09-23T04:26:58;12.20;99.90
32698;DHT22;19087;51.062;3.754;2022-09-23T04:29:24;12.20;99.90
32698;DHT22;19087;51.062;3.754;2022-09-23T04:31:50;11.90;99.90
32698;DHT22;19087;51.062;3.754;2022-09-23T04:34:16;11.80;99.90
32698;DHT22;19087;51.062;3.754;2022-09-23T04:36:46;11.80;99.90
32698;DHT22;19087;51.062;3.754;2022-09-23T04:39:13;11.90;99.90
32698;DHT22;19087;51.062;3.754;2022-09-23T04:41:40;11.90;99.90
32698;DHT22;19087;51.062;3.754;2022-09-23T04:44:06;11.80;99.90
32698;DHT22;19087;51.062;3.754;2022-09-23T04:46:32;11.80;99.90
32698;DHT22;19087;51.062;3.754;2022-09-23T04:48:57;11.80;99.90
32698;DHT22;19087;51.062;3.754;2022-09-23T04:51:25;12.10;99.90
32698;DHT22;19087;51.062;3.754;2022-09-23T04:53:52;12.00;99.90
32698;DHT22;19087;51.062;3.754;2022-09-23T04:56:20;12.10;99.90
32698;DHT22;19087;51.062;3.754;2022-09-23T04:58:47;11.90;99.90
32698;DHT22;19087;51.062;3.754;2022-09-23T05:03:43;11.80;99.90
32698;DHT22;19087;51.062;3.754;2022-09-23T05:06:13;11.60;99.90
32698;DHT22;19087;51.062;3.754;2022-09-23T05:08:46;11.60;99.90
32698;DHT22;19087;51.062;3.754;2022-09-23T05:11:12;11.60;99.90
32698;DHT22;19087;51.062;3.754;2022-09-23T05:13:38;11.60;99.90
32698;DHT22;19087;51.062;3.754;2022-09-23T05:16:08;11.60;99.90
32698;DHT22;19087;51.062;3.754;2022-09-23T05:18:35;11.80;99.90
32698;DHT22;19087;51.062;3.754;2022-09-23T05:21:02;12.00;99.90
32698;DHT22;19087;51.062;3.754;2022-09-23T05:23:28;12.30;99.90
32698;DHT22;19087;51.062;3.754;2022-09-23T05:26:06;12.20;99.90
32698;DHT22;19087;51.062;3.754;2022-09-23T05:28:33;12.00;99.90
32698;DHT22;19087;51.062;3.754;2022-09-23T05:31:04;12.00;99.90
32698;DHT22;19087;51.062;3.754;2022-09-23T05:33:31;12.20;99.90
32698;DHT22;19087;51.062;3.754;2022-09-23T05:35:57;12.30;99.90
32698;DHT22;19087;51.062;3.754;2022-09-23T05:38:24;12.40;99.90
32698;DHT22;19087;51.062;3.754;2022-09-23T05:40:57;12.40;99.90
32698;DHT22;19087;51.062;3.754;2022-09-23T05:43:25;12.30;99.90
32698;DHT22;19087;51.062;3.754;2022-09-23T05:45:59;12.20;99.90
32698;DHT22;19087;51.062;3.754;2022-09-23T05:48:25;12.20;99.90
32698;DHT22;19087;51.062;3.754;2022-09-23T05:50:52;12.30;99.90
32698;DHT22;19087;51.062;3.754;2022-09-23T05:53:18;12.30;99.90
32698;DHT22;19087;51.062;3.754;2022-09-23T05:55:44;12.20;99.90
32698;DHT22;19087;51.062;3.754;2022-09-23T05:58:11;12.10;99.90
32698;DHT22;19087;51.062;3.754;2022-09-23T06:00:42;12.00;99.90
32698;DHT22;19087;51.062;3.754;2022-09-23T06:03:12;12.20;99.90
32698;DHT22;19087;51.062;3.754;2022-09-23T06:05:39;12.30;99.90
32698;DHT22;19087;51.062;3.754;2022-09-23T06:08:05;12.40;99.90
32698;DHT22;19087;51.062;3.754;2022-09-23T06:10:44;12.60;99.90
32698;DHT22;19087;51.062;3.754;2022-09-23T06:13:13;12.60;99.90
32698;DHT22;19087;51.062;3.754;2022-09-23T06:15:40;12.50;99.90
32698;DHT22;19087;51.062;3.754;2022-09-23T06:18:07;12.50;99.90
32698;DHT22;19087;51.062;3.754;2022-09-23T06:20:33;12.50;99.90
32698;DHT22;19087;51.062;3.754;2022-09-23T06:23:07;12.50;99.90
32698;DHT22;19087;51.062;3.754;2022-09-23T06:25:34;12.60;99.90
32698;DHT22;19087;51.062;3.754;2022-09-23T06:28:01;12.60;99.90
32698;DHT22;19087;51.062;3.754;2022-09-23T06:30:27;12.60;99.90
32698;DHT22;19087;51.062;3.754;2022-09-23T06:32:55;12.60;99.90
32698;DHT22;19087;51.062;3.754;2022-09-23T06:35:25;12.60;99.90
32698;DHT22;19087;51.062;3.754;2022-09-23T06:37:51;12.70;99.90
32698;DHT22;19087;51.062;3.754;2022-09-23T06:40:17;12.80;99.90
32698;DHT22;19087;51.062;3.754;2022-09-23T06:42:42;12.90;99.90
32698;DHT22;19087;51.062;3.754;2022-09-23T06:45:10;13.00;99.90
32698;DHT22;19087;51.062;3.754;2022-09-23T06:47:38;13.10;99.90
32698;DHT22;19087;51.062;3.754;2022-09-23T06:50:04;13.30;99.90
32698;DHT22;19087;51.062;3.754;2022-09-23T06:52:30;13.50;99.90
32698;DHT22;19087;51.062;3.754;2022-09-23T06:54:56;13.90;99.90
32698;DHT22;19087;51.062;3.754;2022-09-23T06:57:22;14.00;99.90
32698;DHT22;19087;51.062;3.754;2022-09-23T06:59:48;13.90;99.90
32698;DHT22;19087;51.062;3.754;2022-09-23T07:02:14;13.90;99.90
32698;DHT22;19087;51.062;3.754;2022-09-23T07:04:40;13.90;99.90
32698;DHT22;19087;51.062;3.754;2022-09-23T07:07:06;13.90;99.90
32698;DHT22;19087;51.062;3.754;2022-09-23T07:09:32;14.00;99.90
32698;DHT22;19087;51.062;3.754;2022-09-23T07:11:57;14.00;99.90
32698;DHT22;19087;51.062;3.754;2022-09-23T07:14:23;14.00;99.90
32698;DHT22;19087;51.062;3.754;2022-09-23T07:16:48;14.30;99.90
32698;DHT22;19087;51.062;3.754;2022-09-23T07:19:15;14.60;99.90
32698;DHT22;19087;51.062;3.754;2022-09-23T07:21:40;14.90;99.90
32698;DHT22;19087;51.062;3.754;2022-09-23T07:24:06;15.20;99.90
32698;DHT22;19087;51.062;3.754;2022-09-23T07:26:32;15.40;99.90
32698;DHT22;19087;51.062;3.754;2022-09-23T07:29:00;15.50;99.90
32698;DHT22;19087;51.062;3.754;2022-09-23T07:31:31;15.70;99.90
32698;DHT22;19087;51.062;3.754;2022-09-23T07:33:57;15.80;99.90
32698;DHT22;19087;51.062;3.754;2022-09-23T07:36:23;15.70;99.90
32698;DHT22;19087;51.062;3.754;2022-09-23T07:38:49;15.70;99.90
32698;DHT22;19087;51.062;3.754;2022-09-23T07:41:16;15.60;99.90
32698;DHT22;19087;51.062;3.754;2022-09-23T07:43:43;15.80;99.90
32698;DHT22;19087;51.062;3.754;2022-09-23T07:46:14;16.00;99.90
32698;DHT22;19087;51.062;3.754;2022-09-23T07:48:41;16.30;99.90
32698;DHT22;19087;51.062;3.754;2022-09-23T07:51:17;16.50;99.90
32698;DHT22;19087;51.062;3.754;2022-09-23T07:53:48;16.50;99.90
32698;DHT22;19087;51.062;3.754;2022-09-23T07:56:16;16.40;99.90
32698;DHT22;19087;51.062;3.754;2022-09-23T07:58:44;16.30;99.90
32698;DHT22;19087;51.062;3.754;2022-09-23T08:01:10;16.70;99.90
32698;DHT22;19087;51.062;3.754;2022-09-23T08:03:37;16.90;99.90
32698;DHT22;19087;51.062;3.754;2022-09-23T08:06:08;17.00;99.90
32698;DHT22;19087;51.062;3.754;2022-09-23T08:08:35;17.10;99.90
32698;DHT22;19087;51.062;3.754;2022-09-23T08:11:04;17.20;99.90
32698;DHT22;19087;51.062;3.754;2022-09-23T08:13:31;17.30;99.90
32698;DHT22;19087;51.062;3.754;2022-09-23T08:15:57;17.50;99.90
32698;DHT22;19087;51.062;3.754;2022-09-23T08:18:23;17.90;99.90
32698;DHT22;19087;51.062;3.754;2022-09-23T08:20:49;18.00;99.90
32698;DHT22;19087;51.062;3.754;2022-09-23T08:23:15;18.10;99.90
32698;DHT22;19087;51.062;3.754;2022-09-23T08:25:42;18.20;99.90
32698;DHT22;19087;51.062;3.754;2022-09-23T08:28:08;18.20;99.90
32698;DHT22;19087;51.062;3.754;2022-09-23T08:30:34;18.10;99.90
32698;DHT22;19087;51.062;3.754;2022-09-23T08:32:59;18.00;99.90
32698;DHT22;19087;51.062;3.754;2022-09-23T08:35:25;17.90;99.90
32698;DHT22;19087;51.062;3.754;2022-09-23T08:37:51;17.90;99.90
32698;DHT22;19087;51.062;3.754;2022-09-23T08:40:17;17.90;99.90
32698;DHT22;19087;51.062;3.754;2022-09-23T08:42:44;18.00;99.90
32698;DHT22;19087;51.062;3.754;2022-09-23T08:45:24;17.90;99.90
32698;DHT22;19087;51.062;3.754;2022-09-23T08:50:25;18.00;99.90
32698;DHT22;19087;51.062;3.754;2022-09-23T08:53:01;17.80;99.90
32698;DHT22;19087;51.062;3.754;2022-09-23T08:55:32;17.80;99.90
32698;DHT22;19087;51.062;3.754;2022-09-23T09:04:00;17.70;99.90
32698;DHT22;19087;51.062;3.754;2022-09-23T09:09:18;17.90;99.90
32698;DHT22;19087;51.062;3.754;2022-09-23T09:11:48;18.00;99.90
32698;DHT22;19087;51.062;3.754;2022-09-23T09:14:25;18.40;99.90
32698;DHT22;19087;51.062;3.754;2022-09-23T09:21:56;18.90;99.90
32698;DHT22;19087;51.062;3.754;2022-09-23T09:24:33;18.90;99.90
32698;DHT22;19087;51.062;3.754;2022-09-23T09:27:12;18.90;99.90
32698;DHT22;19087;51.062;3.754;2022-09-23T09:29:41;19.10;99.90
32698;DHT22;19087;51.062;3.754;2022-09-23T09:34:48;19.60;99.90
32698;DHT22;19087;51.062;3.754;2022-09-23T09:37:24;19.70;99.90
32698;DHT22;19087;51.062;3.754;2022-09-23T09:39:51;19.80;99.90
32698;DHT22;19087;51.062;3.754;2022-09-23T09:42:23;19.70;99.90
32698;DHT22;19087;51.062;3.754;2022-09-23T09:44:56;19.60;99.90
32698;DHT22;19087;51.062;3.754;2022-09-23T09:50:12;19.60;99.90
32698;DHT22;19087;51.062;3.754;2022-09-23T09:52:49;19.50;99.90
32698;DHT22;19087;51.062;3.754;2022-09-23T09:55:26;19.50;99.90
32698;DHT22;19087;51.062;3.754;2022-09-23T09:58:01;19.20;99.90
32698;DHT22;19087;51.062;3.754;2022-09-23T10:08:35;19.70;99.90
32698;DHT22;19087;51.062;3.754;2022-09-23T10:13:27;20.60;99.00
32698;DHT22;19087;51.062;3.754;2022-09-23T10:15:58;20.60;98.90
32698;DHT22;19087;51.062;3.754;2022-09-23T10:21:20;20.90;98.30
32698;DHT22;19087;51.062;3.754;2022-09-23T10:23:47;19.80;99.40
32698;DHT22;19087;51.062;3.754;2022-09-23T10:26:15;20.30;99.60
32698;DHT22;19087;51.062;3.754;2022-09-23T10:28:47;20.60;99.40
32698;DHT22;19087;51.062;3.754;2022-09-23T10:31:15;21.10;98.80
32698;DHT22;19087;51.062;3.754;2022-09-23T10:33:49;21.50;98.00
32698;DHT22;19087;51.062;3.754;2022-09-23T10:36:16;21.90;97.60
32698;DHT22;19087;51.062;3.754;2022-09-23T10:38:43;22.20;97.20
32698;DHT22;19087;51.062;3.754;2022-09-23T10:41:17;22.30;96.70
32698;DHT22;19087;51.062;3.754;2022-09-23T10:44:14;22.50;96.40
32698;DHT22;19087;51.062;3.754;2022-09-23T10:47:27;22.50;96.20
32698;DHT22;19087;51.062;3.754;2022-09-23T10:50:29;22.00;96.90
32698;DHT22;19087;51.062;3.754;2022-09-23T10:53:14;21.80;97.30
32698;DHT22;19087;51.062;3.754;2022-09-23T11:01:37;20.90;98.40
32698;DHT22;19087;51.062;3.754;2022-09-23T11:10:07;21.00;98.40
32698;DHT22;19087;51.062;3.754;2022-09-23T11:12:49;21.50;98.20
32698;DHT22;19087;51.062;3.754;2022-09-23T11:15:39;21.50;98.00
32698;DHT22;19087;51.062;3.754;2022-09-23T11:26:13;21.30;98.50
32698;DHT22;19087;51.062;3.754;2022-09-23T11:29:04;21.80;98.10
32698;DHT22;19087;51.062;3.754;2022-09-23T11:37:06;21.50;98.20
32698;DHT22;19087;51.062;3.754;2022-09-23T11:39:45;21.50;98.30
32698;DHT22;19087;51.062;3.754;2022-09-23T11:42:19;21.60;98.30
32698;DHT22;19087;51.062;3.754;2022-09-23T11:44:50;21.70;98.10
32698;DHT22;19087;51.062;3.754;2022-09-23T11:47:25;21.70;98.30
32698;DHT22;19087;51.062;3.754;2022-09-23T11:56:37;22.90;97.20
32698;DHT22;19087;51.062;3.754;2022-09-23T12:02:02;22.50;97.60
32698;DHT22;19087;51.062;3.754;2022-09-23T12:04:34;22.00;98.40
32698;DHT22;19087;51.062;3.754;2022-09-23T12:12:21;22.50;97.20
32698;DHT22;19087;51.062;3.754;2022-09-23T12:26:11;22.10;98.20
32698;DHT22;19087;51.062;3.754;2022-09-23T12:28:43;21.60;98.90
32698;DHT22;19087;51.062;3.754;2022-09-23T12:31:13;21.30;99.50
32698;DHT22;19087;51.062;3.754;2022-09-23T12:33:53;21.00;99.90
32698;DHT22;19087;51.062;3.754;2022-09-23T12:36:32;21.20;99.90
32698;DHT22;19087;51.062;3.754;2022-09-23T12:39:13;21.80;99.80
32698;DHT22;19087;51.062;3.754;2022-09-23T12:41:46;22.20;99.10
32698;DHT22;19087;51.062;3.754;2022-09-23T12:49:39;22.30;98.50
32698;DHT22;19087;51.062;3.754;2022-09-23T12:52:26;22.40;98.80
32698;DHT22;19087;51.062;3.754;2022-09-23T12:54:56;22.40;98.60
32698;DHT22;19087;51.062;3.754;2022-09-23T13:02:41;22.20;99.10
32698;DHT22;19087;51.062;3.754;2022-09-23T13:05:15;21.90;99.20
32698;DHT22;19087;51.062;3.754;2022-09-23T13:08:11;22.20;99.40
32698;DHT22;19087;51.062;3.754;2022-09-23T13:10:41;21.80;99.60
32698;DHT22;19087;51.062;3.754;2022-09-23T13:18:58;21.40;99.90
32698;DHT22;19087;51.062;3.754;2022-09-23T13:26:39;21.40;99.90
32698;DHT22;19087;51.062;3.754;2022-09-23T13:31:54;21.70;99.90
32698;DHT22;19087;51.062;3.754;2022-09-23T13:34:23;21.70;99.90
32698;DHT22;19087;51.062;3.754;2022-09-23T13:36:50;21.80;99.90
32698;DHT22;19087;51.062;3.754;2022-09-23T13:39:26;21.90;99.90
32698;DHT22;19087;51.062;3.754;2022-09-23T13:41:54;21.80;99.90
32698;DHT22;19087;51.062;3.754;2022-09-23T13:44:22;21.60;99.90
32698;DHT22;19087;51.062;3.754;2022-09-23T13:46:51;20.90;99.90
32698;DHT22;19087;51.062;3.754;2022-09-23T13:49:29;20.80;99.90
32698;DHT22;19087;51.062;3.754;2022-09-23T13:51:57;20.50;99.90
32698;DHT22;19087;51.062;3.754;2022-09-23T13:54:34;20.70;99.90
32698;DHT22;19087;51.062;3.754;2022-09-23T13:57:33;20.90;99.90
32698;DHT22;19087;51.062;3.754;2022-09-23T14:00:18;21.30;99.90
32698;DHT22;19087;51.062;3.754;2022-09-23T14:02:45;21.50;99.90
32698;DHT22;19087;51.062;3.754;2022-09-23T14:05:16;21.30;99.90
32698;DHT22;19087;51.062;3.754;2022-09-23T14:07:47;21.00;99.90
32698;DHT22;19087;51.062;3.754;2022-09-23T14:10:18;20.70;99.90
32698;DHT22;19087;51.062;3.754;2022-09-23T14:12:46;20.60;99.90
32698;DHT22;19087;51.062;3.754;2022-09-23T14:15:14;21.00;99.90
32698;DHT22;19087;51.062;3.754;2022-09-23T14:18:00;21.30;99.90
32698;DHT22;19087;51.062;3.754;2022-09-23T14:20:26;21.40;99.90
32698;DHT22;19087;51.062;3.754;2022-09-23T14:23:11;21.50;99.90
32698;DHT22;19087;51.062;3.754;2022-09-23T14:25:44;21.20;99.90
32698;DHT22;19087;51.062;3.754;2022-09-23T14:28:16;20.50;99.90
32698;DHT22;19087;51.062;3.754;2022-09-23T14:30:43;20.70;99.90
32698;DHT22;19087;51.062;3.754;2022-09-23T14:33:15;20.70;99.90
32698;DHT22;19087;51.062;3.754;2022-09-23T14:35:49;20.90;99.90
32698;DHT22;19087;51.062;3.754;2022-09-23T14:38:25;20.90;99.90
32698;DHT22;19087;51.062;3.754;2022-09-23T14:41:24;20.50;99.90
32698;DHT22;19087;51.062;3.754;2022-09-23T14:43:51;20.30;99.90
32698;DHT22;19087;51.062;3.754;2022-09-23T14:46:20;20.30;99.90
32698;DHT22;19087;51.062;3.754;2022-09-23T14:48:58;20.50;99.90
32698;DHT22;19087;51.062;3.754;2022-09-23T14:51:49;20.60;99.90
32698;DHT22;19087;51.062;3.754;2022-09-23T14:57:01;20.60;99.90
32698;DHT22;19087;51.062;3.754;2022-09-23T14:59:32;20.70;99.90
32698;DHT22;19087;51.062;3.754;2022-09-23T15:01:58;20.50;99.90
32698;DHT22;19087;51.062;3.754;2022-09-23T15:07:06;20.20;99.90
32698;DHT22;19087;51.062;3.754;2022-09-23T15:09:40;20.00;99.90
32698;DHT22;19087;51.062;3.754;2022-09-23T15:12:11;19.80;99.90
32698;DHT22;19087;51.062;3.754;2022-09-23T15:14:40;19.90;99.90
32698;DHT22;19087;51.062;3.754;2022-09-23T15:20:00;20.20;99.90
32698;DHT22;19087;51.062;3.754;2022-09-23T15:22:27;20.30;99.90
32698;DHT22;19087;51.062;3.754;2022-09-23T15:30:37;20.10;99.90
32698;DHT22;19087;51.062;3.754;2022-09-23T15:33:04;19.90;99.90
32698;DHT22;19087;51.062;3.754;2022-09-23T15:35:30;19.90;99.90
32698;DHT22;19087;51.062;3.754;2022-09-23T15:37:58;19.90;99.90
32698;DHT22;19087;51.062;3.754;2022-09-23T15:40:35;19.90;99.90
32698;DHT22;19087;51.062;3.754;2022-09-23T15:43:21;19.80;99.90
32698;DHT22;19087;51.062;3.754;2022-09-23T15:45:55;19.30;99.90
32698;DHT22;19087;51.062;3.754;2022-09-23T15:48:27;19.00;99.90
32698;DHT22;19087;51.062;3.754;2022-09-23T15:50:54;19.10;99.90
32698;DHT22;19087;51.062;3.754;2022-09-23T15:53:23;19.20;99.90
32698;DHT22;19087;51.062;3.754;2022-09-23T15:55:50;19.10;99.90
32698;DHT22;19087;51.062;3.754;2022-09-23T15:58:17;19.10;99.90
32698;DHT22;19087;51.062;3.754;2022-09-23T16:00:43;18.90;99.90
32698;DHT22;19087;51.062;3.754;2022-09-23T16:03:13;18.60;99.90
32698;DHT22;19087;51.062;3.754;2022-09-23T16:05:42;18.80;99.90
32698;DHT22;19087;51.062;3.754;2022-09-23T16:08:12;18.90;99.90
32698;DHT22;19087;51.062;3.754;2022-09-23T16:10:41;18.80;99.90
32698;DHT22;19087;51.062;3.754;2022-09-23T16:13:11;18.80;99.90
32698;DHT22;19087;51.062;3.754;2022-09-23T16:15:36;18.90;99.90
32698;DHT22;19087;51.062;3.754;2022-09-23T16:18:06;18.90;99.90
32698;DHT22;19087;51.062;3.754;2022-09-23T16:20:40;18.90;99.90
32698;DHT22;19087;51.062;3.754;2022-09-23T16:23:23;18.70;99.90
32698;DHT22;19087;51.062;3.754;2022-09-23T16:26:04;18.80;99.90
32698;DHT22;19087;51.062;3.754;2022-09-23T16:28:31;18.80;99.90
32698;DHT22;19087;51.062;3.754;2022-09-23T16:30:57;18.80;99.90
32698;DHT22;19087;51.062;3.754;2022-09-23T16:33:22;18.80;99.90
32698;DHT22;19087;51.062;3.754;2022-09-23T16:35:48;18.80;99.90
32698;DHT22;19087;51.062;3.754;2022-09-23T16:38:14;18.50;99.90
32698;DHT22;19087;51.062;3.754;2022-09-23T16:40:40;18.30;99.90
32698;DHT22;19087;51.062;3.754;2022-09-23T16:43:06;18.30;99.90
32698;DHT22;19087;51.062;3.754;2022-09-23T16:45:32;18.00;99.90
32698;DHT22;19087;51.062;3.754;2022-09-23T16:47:59;18.00;99.90
32698;DHT22;19087;51.062;3.754;2022-09-23T16:50:25;17.90;99.90
32698;DHT22;19087;51.062;3.754;2022-09-23T16:52:54;17.70;99.90
32698;DHT22;19087;51.062;3.754;2022-09-23T16:55:21;17.60;99.90
32698;DHT22;19087;51.062;3.754;2022-09-23T16:57:49;17.40;99.90
32698;DHT22;19087;51.062;3.754;2022-09-23T17:00:15;17.20;99.90
32698;DHT22;19087;51.062;3.754;2022-09-23T17:03:00;17.40;99.90
32698;DHT22;19087;51.062;3.754;2022-09-23T17:05:44;17.30;99.90
32698;DHT22;19087;51.062;3.754;2022-09-23T17:08:11;17.30;99.90
32698;DHT22;19087;51.062;3.754;2022-09-23T17:10:39;17.10;99.90
32698;DHT22;19087;51.062;3.754;2022-09-23T17:13:05;16.90;99.90
32698;DHT22;19087;51.062;3.754;2022-09-23T17:15:37;16.90;99.90
32698;DHT22;19087;51.062;3.754;2022-09-23T17:18:04;16.80;99.90
32698;DHT22;19087;51.062;3.754;2022-09-23T17:20:30;16.70;99.90
32698;DHT22;19087;51.062;3.754;2022-09-23T17:22:56;16.80;99.90
32698;DHT22;19087;51.062;3.754;2022-09-23T17:25:21;16.70;99.90
32698;DHT22;19087;51.062;3.754;2022-09-23T17:27:48;16.80;99.90
32698;DHT22;19087;51.062;3.754;2022-09-23T17:30:14;17.10;99.90
32698;DHT22;19087;51.062;3.754;2022-09-23T17:32:40;17.10;99.90
32698;DHT22;19087;51.062;3.754;2022-09-23T17:35:06;17.10;99.90
32698;DHT22;19087;51.062;3.754;2022-09-23T17:37:32;17.00;99.90
32698;DHT22;19087;51.062;3.754;2022-09-23T17:39:58;16.90;99.90
32698;DHT22;19087;51.062;3.754;2022-09-23T17:42:24;16.80;99.90
32698;DHT22;19087;51.062;3.754;2022-09-23T17:44:51;16.90;99.90
32698;DHT22;19087;51.062;3.754;2022-09-23T17:47:16;16.80;99.90
32698;DHT22;19087;51.062;3.754;2022-09-23T17:49:42;16.90;99.90
32698;DHT22;19087;51.062;3.754;2022-09-23T17:52:08;16.90;99.90
32698;DHT22;19087;51.062;3.754;2022-09-23T17:54:34;17.00;99.90
32698;DHT22;19087;51.062;3.754;2022-09-23T17:57:02;17.10;99.90
32698;DHT22;19087;51.062;3.754;2022-09-23T17:59:28;17.10;99.90
32698;DHT22;19087;51.062;3.754;2022-09-23T18:01:53;17.20;99.90
32698;DHT22;19087;51.062;3.754;2022-09-23T18:04:19;17.20;99.90
32698;DHT22;19087;51.062;3.754;2022-09-23T18:06:45;17.10;99.90
32698;DHT22;19087;51.062;3.754;2022-09-23T18:09:12;17.00;99.90
32698;DHT22;19087;51.062;3.754;2022-09-23T18:11:44;16.70;99.90
32698;DHT22;19087;51.062;3.754;2022-09-23T18:14:18;16.70;99.90
32698;DHT22;19087;51.062;3.754;2022-09-23T18:16:46;16.70;99.90
32698;DHT22;19087;51.062;3.754;2022-09-23T18:19:14;16.70;99.90
32698;DHT22;19087;51.062;3.754;2022-09-23T18:21:46;16.70;99.90
32698;DHT22;19087;51.062;3.754;2022-09-23T18:24:13;16.60;99.90
32698;DHT22;19087;51.062;3.754;2022-09-23T18:26:39;16.60;99.90
32698;DHT22;19087;51.062;3.754;2022-09-23T18:29:06;16.40;99.90
32698;DHT22;19087;51.062;3.754;2022-09-23T18:31:33;16.50;99.90
32698;DHT22;19087;51.062;3.754;2022-09-23T18:34:02;16.20;99.90
32698;DHT22;19087;51.062;3.754;2022-09-23T18:36:28;16.30;99.90
32698;DHT22;19087;51.062;3.754;2022-09-23T18:38:54;16.30;99.90
32698;DHT22;19087;51.062;3.754;2022-09-23T18:41:20;16.30;99.90
32698;DHT22;19087;51.062;3.754;2022-09-23T18:43:47;16.20;99.90